Lawley, Alabama
Current Conditions -  °F | °C
As of 11:53 AM on Thursday 27 Nov 2014 (Local Time) from KEET Reporting Station
Overcast Overcast  
Wind Chill: 41°   Ceiling: 3700
Heat Index: 46°   Visibility: 10mi
Dew Point: 32°   Wind: 9mph
Humidity: 58%   Direction: 320°NW
Pressure: 30.39"   Gusts: NA
Location:  32.86°N, 86.95°W
Report Text: KEET 271753Z AUTO 32008KT 10SM BKN037 OVC044 08/00 A3039 RMK AO2 SLP290 T00780000 10078 20039 50006
Loading
Personal Weather Stations






























Interactive Weather Map New forecast layout! Learn more

10-Day Weather Forecast

Advertisements
Track Severe Weather on mobile